Woodbridge, Virginia
Current Conditions -  °F | °C
As of 10:58 AM on Thursday 29 Jan 2015 (Local Time) from KDAA Reporting Station
Few Clouds Few Clouds  
Wind Chill: 24°   Ceiling: Unl
Heat Index: 31°   Visibility: 10mi
Dew Point: 13°   Wind: 7mph
Humidity: 47%   Direction: 150°SSE
Pressure: 30.29"   Gusts: NA
Location:  38.66°N, 77.25°W
Report Text: KDAA 291558Z AUTO 15006KT 10SM FEW210 M01/M11 A3029 RMK AO2 SLP261 T10061107
Loading
Personal Weather Stations






























Interactive Weather Map New forecast layout! Learn more

10-Day Weather Forecast

Advertisements
Track Severe Weather on mobile